Time;durP1;ratioP1;P1;durP2;ratioP2;P2;SDS_P1;SDS_P2;PMS_P1;PMS_P2;Temp;Humidity;BMP_temperature;BMP_pressure;BME280_temperature;BME280_humidity;BME280_pressure;Samples;Min_cycle;Max_cycle;Signal;HPM_P1;HPM_P2
2023/07/09 00:00:17;;;;;;;13.18;7.78;;;21.00;99.90;;;;;;5003902;28;20183;-65
2023/07/09 00:02:43;;;;;;;12.85;7.80;;;20.90;99.90;;;;;;4985689;28;20528;-65
2023/07/09 00:05:12;;;;;;;12.32;7.57;;;20.90;99.90;;;;;;4970016;28;20045;-65
2023/07/09 00:07:38;;;;;;;18.27;9.43;;;20.80;99.90;;;;;;4985686;28;20046;-65
2023/07/09 00:10:18;;;;;;;14.65;8.77;;;20.80;99.90;;;;;;4969716;28;20049;-65
2023/07/09 00:12:45;;;;;;;14.98;8.93;;;20.70;99.90;;;;;;4969684;28;20046;-65
2023/07/09 00:15:12;;;;;;;17.10;8.70;;;20.70;99.90;;;;;;4985652;28;20084;-65
2023/07/09 00:17:39;;;;;;;18.05;8.88;;;20.70;99.90;;;;;;4986514;28;20057;-65
2023/07/09 00:20:11;;;;;;;15.60;8.98;;;20.70;99.90;;;;;;5004306;28;20291;-65
2023/07/09 00:22:37;;;;;;;12.45;8.68;;;20.60;99.90;;;;;;4971480;28;20507;-66
2023/07/09 00:25:03;;;;;;;14.05;9.00;;;20.50;99.90;;;;;;4989877;28;20038;-66
2023/07/09 00:27:30;;;;;;;15.68;9.23;;;20.50;99.90;;;;;;4989736;28;20065;-66
2023/07/09 00:29:56;;;;;;;15.20;9.52;;;20.50;99.90;;;;;;4990209;28;20444;-66
2023/07/09 00:32:22;;;;;;;14.70;9.07;;;20.50;99.90;;;;;;4990449;28;20092;-66
2023/07/09 00:34:49;;;;;;;15.70;8.52;;;20.40;99.90;;;;;;5006894;28;20034;-65
2023/07/09 00:37:25;;;;;;;13.80;8.82;;;20.30;99.90;;;;;;5007183;28;20602;-66
2023/07/09 00:39:51;;;;;;;18.50;9.43;;;20.30;99.90;;;;;;4989173;28;20058;-66
2023/07/09 00:42:19;;;;;;;15.32;9.07;;;20.20;99.90;;;;;;5007103;28;20148;-66
2023/07/09 00:44:47;;;;;;;13.93;8.80;;;20.20;99.90;;;;;;4989560;28;20046;-66
2023/07/09 00:47:42;;;;;;;12.68;8.18;;;20.20;99.90;;;;;;4973681;28;20050;-66
2023/07/09 00:50:10;;;;;;;;;;;20.20;99.90;;;;;;4959114;28;20519;-66
2023/07/09 00:52:53;;;;;;;14.60;8.63;;;20.10;99.90;;;;;;4989082;28;20254;-66
2023/07/09 00:55:23;;;;;;;11.52;7.60;;;20.10;99.90;;;;;;4990261;28;20049;-66
2023/07/09 00:57:56;;;;;;;13.93;8.07;;;20.10;99.90;;;;;;4989790;28;20049;-65
2023/07/09 01:00:27;;;;;;;17.15;9.10;;;20.10;99.90;;;;;;4989264;28;20045;-65
2023/07/09 01:02:53;;;;;;;13.00;9.15;;;20.00;99.90;;;;;;4989476;28;20038;-65
2023/07/09 01:05:19;;;;;;;16.27;9.27;;;20.00;99.90;;;;;;5007024;28;20053;-66
2023/07/09 01:07:46;;;;;;;11.88;8.55;;;19.90;99.90;;;;;;4971249;28;20248;-66
2023/07/09 01:10:14;;;;;;;16.80;8.80;;;19.90;99.90;;;;;;4969626;28;20464;-66
2023/07/09 01:12:40;;;;;;;13.65;9.05;;;19.90;99.90;;;;;;4976397;28;20081;-64
2023/07/09 01:15:07;;;;;;;15.73;9.63;;;19.90;99.90;;;;;;4988866;28;20489;-65
2023/07/09 01:17:33;;;;;;;15.68;9.82;;;19.90;99.90;;;;;;4989831;28;20046;-66
2023/07/09 01:19:59;;;;;;;15.40;9.13;;;19.90;99.90;;;;;;4989304;28;20496;-65
2023/07/09 01:22:27;;;;;;;14.70;9.75;;;19.90;99.90;;;;;;4972159;28;20169;-66
2023/07/09 01:25:03;;;;;;;16.70;9.90;;;19.90;99.90;;;;;;4988914;28;20493;-66
2023/07/09 01:27:34;;;;;;;16.65;10.18;;;19.80;99.90;;;;;;4988354;28;20132;-66
2023/07/09 01:30:03;;;;;;;18.00;9.98;;;19.80;99.90;;;;;;5005437;28;20308;-66
2023/07/09 01:32:29;;;;;;;16.48;9.63;;;19.70;99.90;;;;;;4988941;28;20042;-66
2023/07/09 01:35:00;;;;;;;16.40;9.38;;;19.70;99.90;;;;;;4988115;28;20045;-66
2023/07/09 01:37:27;;;;;;;14.30;9.15;;;19.70;99.90;;;;;;4988461;28;20038;-66
2023/07/09 01:39:53;;;;;;;13.65;9.40;;;19.70;99.90;;;;;;4988578;28;20058;-65
2023/07/09 01:42:21;;;;;;;12.57;9.43;;;19.70;99.90;;;;;;5005629;28;20049;-65
2023/07/09 01:44:50;;;;;;;18.90;9.93;;;19.70;99.90;;;;;;4988693;28;20073;-66
2023/07/09 01:47:16;;;;;;;13.57;10.07;;;19.70;99.90;;;;;;4989355;28;20129;-65
2023/07/09 01:49:45;;;;;;;20.92;11.27;;;19.70;99.90;;;;;;5005087;28;20038;-65
2023/07/09 01:52:13;;;;;;;15.55;10.93;;;19.70;99.90;;;;;;5006041;28;20046;-65
2023/07/09 01:54:39;;;;;;;18.83;11.75;;;19.70;99.90;;;;;;4988962;28;20492;-66
2023/07/09 01:57:13;;;;;;;17.45;10.52;;;19.60;99.90;;;;;;4987412;28;20049;-66
2023/07/09 01:59:41;;;;;;;17.77;10.90;;;19.50;99.90;;;;;;4988273;28;20500;-65
2023/07/09 02:02:07;;;;;;;16.08;10.60;;;19.50;99.90;;;;;;4971182;28;20054;-66
2023/07/09 02:04:33;;;;;;;18.70;10.25;;;19.40;99.90;;;;;;4969064;28;20050;-65
2023/07/09 02:06:59;;;;;;;16.75;10.63;;;19.40;99.90;;;;;;4984813;28;20034;-66
2023/07/09 02:09:24;;;;;;;16.10;11.10;;;19.40;99.90;;;;;;5006348;28;20045;-66
2023/07/09 02:11:50;;;;;;;17.60;10.80;;;19.30;99.90;;;;;;5004860;28;20040;-65
2023/07/09 02:14:15;;;;;;;13.60;10.07;;;19.30;99.90;;;;;;4967876;28;20039;-65
2023/07/09 02:16:41;;;;;;;15.60;10.65;;;19.30;99.90;;;;;;4968730;28;20493;-64
2023/07/09 02:19:07;;;;;;;14.30;10.30;;;19.30;99.90;;;;;;4986549;28;20056;-65
2023/07/09 02:21:33;;;;;;;14.63;10.60;;;19.30;99.90;;;;;;4994559;28;20437;-65
2023/07/09 02:23:58;;;;;;;17.13;10.38;;;19.30;99.90;;;;;;4988651;28;20037;-65
2023/07/09 02:26:24;;;;;;;18.27;11.88;;;19.30;99.90;;;;;;4970938;28;20464;-65
2023/07/09 02:28:49;;;;;;;16.25;10.80;;;19.20;99.90;;;;;;4987342;28;20041;-65
2023/07/09 02:31:15;;;;;;;17.88;10.93;;;19.20;99.90;;;;;;5006644;28;20117;-66
2023/07/09 02:33:41;;;;;;;16.65;11.35;;;19.20;99.90;;;;;;4988631;28;20115;-66
2023/07/09 02:36:07;;;;;;;16.77;11.05;;;19.10;99.90;;;;;;4987500;28;20554;-65
2023/07/09 02:38:32;;;;;;;16.80;11.40;;;19.10;99.90;;;;;;4988180;28;20077;-65
2023/07/09 02:40:58;;;;;;;16.60;10.82;;;19.10;99.90;;;;;;5004540;28;20046;-65
2023/07/09 02:43:24;;;;;;;17.42;10.30;;;19.10;99.90;;;;;;4987256;28;20050;-64
2023/07/09 02:45:49;;;;;;;15.48;10.65;;;19.10;99.90;;;;;;5004765;28;20046;-65
2023/07/09 02:48:15;;;;;;;14.18;11.15;;;19.10;99.90;;;;;;4971478;28;20044;-66
2023/07/09 02:50:43;;;;;;;16.98;11.98;;;19.10;99.90;;;;;;4986689;28;20049;-66
2023/07/09 02:53:09;;;;;;;17.35;11.07;;;19.10;99.90;;;;;;5002318;28;20496;-64
2023/07/09 02:55:34;;;;;;;19.17;12.05;;;19.00;99.90;;;;;;4986575;28;20042;-66
2023/07/09 02:58:03;;;;;;;18.48;12.00;;;19.10;99.90;;;;;;4987442;28;20049;-64
2023/07/09 03:00:30;;;;;;;19.90;11.20;;;19.10;99.90;;;;;;4987564;28;20042;-64
2023/07/09 03:02:56;;;;;;;16.80;12.05;;;19.10;99.90;;;;;;4987670;28;20516;-64
2023/07/09 03:05:21;;;;;;;17.67;11.20;;;19.10;99.90;;;;;;4987111;28;20088;-65
2023/07/09 03:07:47;;;;;;;17.08;11.88;;;19.10;99.90;;;;;;4970694;28;20041;-65
2023/07/09 03:10:13;;;;;;;18.67;11.38;;;19.10;99.90;;;;;;4987016;28;20382;-65
2023/07/09 03:12:38;;;;;;;15.48;12.00;;;19.20;99.90;;;;;;4986286;28;20053;-65
2023/07/09 03:15:04;;;;;;;17.90;12.48;;;19.10;99.90;;;;;;5004257;28;20567;-65
2023/07/09 03:17:30;;;;;;;16.30;12.02;;;19.10;99.90;;;;;;4987834;28;20091;-64
2023/07/09 03:19:55;;;;;;;19.48;12.35;;;19.10;99.90;;;;;;4987167;28;20045;-64
2023/07/09 03:22:21;;;;;;;17.75;11.75;;;19.10;99.90;;;;;;4986020;28;20657;-64
2023/07/09 03:24:46;;;;;;;17.27;11.60;;;19.10;99.90;;;;;;5004767;28;20046;-65
2023/07/09 03:27:12;;;;;;;18.70;12.10;;;19.00;99.90;;;;;;4986266;28;20110;-64
2023/07/09 03:29:42;;;;;;;16.60;11.82;;;19.00;99.90;;;;;;5004747;28;20069;-65
2023/07/09 03:32:08;;;;;;;20.20;12.13;;;18.90;99.90;;;;;;4968976;28;20271;-65
2023/07/09 03:34:34;;;;;;;19.58;13.10;;;18.80;99.90;;;;;;5003612;28;20046;-65
2023/07/09 03:36:59;;;;;;;17.92;12.93;;;18.80;99.90;;;;;;4993601;28;20129;-64
2023/07/09 03:39:25;;;;;;;18.15;13.20;;;18.80;99.90;;;;;;4967237;28;20062;-65
2023/07/09 03:41:50;;;;;;;19.65;12.63;;;18.80;99.90;;;;;;4973461;28;20050;-63
2023/07/09 03:44:16;;;;;;;17.70;12.25;;;18.80;99.90;;;;;;4992744;28;20052;-65
2023/07/09 03:46:42;;;;;;;18.30;13.15;;;18.80;99.90;;;;;;5004509;28;20100;-64
2023/07/09 03:49:07;;;;;;;18.38;12.57;;;18.80;99.90;;;;;;5003905;28;20350;-64
2023/07/09 03:51:33;;;;;;;17.45;12.48;;;18.80;99.90;;;;;;4986363;28;20041;-64
2023/07/09 03:54:02;;;;;;;16.13;11.93;;;18.80;99.90;;;;;;4986931;28;20489;-65
2023/07/09 03:56:28;;;;;;;20.77;12.23;;;18.80;99.90;;;;;;4987372;28;20488;-65
2023/07/09 03:58:53;;;;;;;18.80;12.07;;;18.80;99.90;;;;;;5003485;28;20176;-64
2023/07/09 04:01:20;;;;;;;18.70;11.13;;;18.80;99.90;;;;;;4970805;28;20073;-64
2023/07/09 04:03:48;;;;;;;21.85;11.52;;;18.80;99.90;;;;;;4987462;28;20657;-64
2023/07/09 04:06:14;;;;;;;16.23;11.85;;;18.80;99.90;;;;;;5003883;28;20108;-64
2023/07/09 04:08:40;;;;;;;17.40;12.13;;;18.80;99.90;;;;;;4984180;28;20480;-63
2023/07/09 04:11:06;;;;;;;14.05;11.35;;;18.90;99.90;;;;;;4985624;28;20038;-64
2023/07/09 04:13:31;;;;;;;17.90;11.48;;;18.90;99.90;;;;;;5004098;28;20077;-64
2023/07/09 04:16:00;;;;;;;16.67;11.10;;;19.00;99.90;;;;;;5004427;28;20078;-64
2023/07/09 04:18:26;;;;;;;19.23;11.50;;;19.10;99.90;;;;;;4986741;28;20088;-64
2023/07/09 04:20:52;;;;;;;16.17;10.85;;;19.20;99.90;;;;;;4974803;28;20077;-65
2023/07/09 04:23:19;;;;;;;18.20;11.05;;;19.30;99.90;;;;;;5004362;28;20033;-65
2023/07/09 04:25:44;;;;;;;16.52;11.60;;;19.40;99.90;;;;;;5003787;28;20042;-64
2023/07/09 04:28:10;;;;;;;18.52;11.75;;;19.50;99.90;;;;;;5004520;28;20095;-64
2023/07/09 04:30:36;;;;;;;21.38;11.95;;;19.60;99.90;;;;;;5002738;28;20038;-64
2023/07/09 04:33:02;;;;;;;16.33;10.38;;;19.70;99.90;;;;;;5003684;28;20069;-64
2023/07/09 04:35:28;;;;;;;14.88;10.45;;;19.80;99.90;;;;;;5004138;28;20034;-64
2023/07/09 04:37:53;;;;;;;18.08;10.90;;;19.90;99.90;;;;;;4986296;28;20049;-64
2023/07/09 04:40:20;;;;;;;14.88;10.40;;;20.00;99.90;;;;;;4952385;28;20098;-64
2023/07/09 04:42:45;;;;;;;15.13;10.00;;;20.20;99.90;;;;;;4931602;28;20055;-65
2023/07/09 04:45:12;;;;;;;15.77;10.13;;;20.30;99.90;;;;;;4961400;28;20050;-64
2023/07/09 04:47:38;;;;;;;13.88;10.02;;;20.40;99.90;;;;;;4985192;28;20129;-63
2023/07/09 04:50:06;;;;;;;14.98;10.18;;;20.60;99.90;;;;;;4967222;28;20118;-65
2023/07/09 04:52:31;;;;;;;16.13;10.35;;;20.60;99.90;;;;;;4966618;28;20556;-65
2023/07/09 04:54:57;;;;;;;19.50;10.27;;;20.70;99.90;;;;;;4985337;28;20046;-65
2023/07/09 04:57:24;;;;;;;15.02;10.02;;;20.80;99.90;;;;;;4951220;28;20556;-64
2023/07/09 04:59:53;;;;;;;15.25;10.00;;;20.90;99.90;;;;;;4950982;28;20045;-65
2023/07/09 05:02:19;;;;;;;17.00;9.98;;;21.00;99.90;;;;;;4966735;28;20046;-66
2023/07/09 05:04:47;;;;;;;15.43;9.95;;;21.20;99.90;;;;;;4966431;28;20049;-64
2023/07/09 05:07:13;;;;;;;16.00;9.48;;;21.30;99.90;;;;;;4966390;28;20062;-65
2023/07/09 05:09:38;;;;;;;12.98;8.80;;;21.50;99.90;;;;;;4987490;28;20046;-64
2023/07/09 05:12:05;;;;;;;17.08;8.95;;;21.60;99.90;;;;;;4969391;28;20477;-64
2023/07/09 05:14:30;;;;;;;12.48;9.20;;;21.80;99.90;;;;;;4969338;28;20076;-64
2023/07/09 05:16:56;;;;;;;13.70;9.00;;;22.00;99.90;;;;;;4986452;28;20741;-64
2023/07/09 05:19:21;;;;;;;12.25;8.35;;;22.40;99.90;;;;;;4986940;28;20053;-64
2023/07/09 05:21:47;;;;;;;15.80;8.48;;;22.50;99.90;;;;;;4960883;28;20046;-65
2023/07/09 05:24:12;;;;;;;13.35;8.73;;;22.80;99.90;;;;;;4950954;28;20054;-64
2023/07/09 05:26:38;;;;;;;14.00;8.38;;;22.60;99.90;;;;;;4933144;28;20090;-65
2023/07/09 05:29:05;;;;;;;11.63;8.30;;;22.50;99.90;;;;;;4955634;28;20194;-64
2023/07/09 05:31:31;;;;;;;13.13;9.13;;;22.50;99.90;;;;;;4975047;28;20098;-65
2023/07/09 05:33:57;;;;;;;14.38;8.52;;;22.50;99.90;;;;;;4957740;28;20477;-64
2023/07/09 05:36:23;;;;;;;12.80;9.00;;;22.50;99.90;;;;;;4984383;28;20046;-65
2023/07/09 05:38:49;;;;;;;14.27;9.68;;;22.50;99.90;;;;;;4955838;28;20081;-65
2023/07/09 05:41:16;;;;;;;15.88;8.88;;;22.50;99.90;;;;;;5006526;28;20049;-66
2023/07/09 05:43:43;;;;;;;14.25;9.00;;;22.40;99.90;;;;;;4987474;28;20473;-65
2023/07/09 05:46:09;;;;;;;19.00;9.07;;;22.30;99.90;;;;;;5007456;28;20180;-64
2023/07/09 05:48:34;;;;;;;13.15;8.38;;;22.30;99.90;;;;;;5007364;28;20607;-66
2023/07/09 05:51:00;;;;;;;12.65;8.60;;;22.40;99.90;;;;;;5005716;28;20034;-65
2023/07/09 05:53:25;;;;;;;14.50;8.32;;;22.60;99.90;;;;;;4988671;28;20092;-65
2023/07/09 05:55:55;;;;;;;12.32;8.93;;;22.70;99.90;;;;;;4988189;28;20601;-65
2023/07/09 05:58:22;;;;;;;16.15;8.85;;;22.90;99.90;;;;;;5006268;28;20034;-64
2023/07/09 06:00:53;;;;;;;12.13;7.93;;;23.00;99.90;;;;;;4988458;28;20064;-65
2023/07/09 06:03:21;;;;;;;63.58;11.40;;;23.10;99.90;;;;;;4972919;28;20053;-65
2023/07/09 06:05:49;;;;;;;14.18;7.55;;;23.10;99.90;;;;;;5005796;28;20077;-65
2023/07/09 06:08:21;;;;;;;12.20;8.13;;;23.10;99.90;;;;;;4972133;28;20052;-65
2023/07/09 06:10:55;;;;;;;13.60;8.57;;;23.00;99.90;;;;;;4987985;28;20030;-64
2023/07/09 06:13:21;;;;;;;12.75;8.98;;;22.90;99.90;;;;;;4987435;28;20069;-65
2023/07/09 06:15:48;;;;;;;16.35;8.52;;;22.90;99.90;;;;;;4969389;28;20047;-65
2023/07/09 06:18:14;;;;;;;13.35;8.52;;;22.90;99.90;;;;;;4986314;28;20186;-66
2023/07/09 06:20:40;;;;;;;14.70;8.70;;;22.80;99.90;;;;;;4986186;28;20509;-64
2023/07/09 06:23:05;;;;;;;15.02;9.10;;;22.90;99.90;;;;;;5006235;28;20041;-64
2023/07/09 06:25:31;;;;;;;13.98;8.23;;;22.80;99.90;;;;;;4971919;28;20073;-65
2023/07/09 06:27:57;;;;;;;15.90;8.80;;;22.80;99.90;;;;;;4984318;28;20050;-65
2023/07/09 06:30:23;;;;;;;17.35;8.88;;;22.80;99.90;;;;;;4968540;28;20073;-65
2023/07/09 06:32:49;;;;;;;13.15;8.80;;;22.90;99.90;;;;;;4972031;28;20074;-65
2023/07/09 06:35:14;;;;;;;13.35;8.68;;;22.90;99.90;;;;;;4987493;28;20038;-64
2023/07/09 06:37:40;;;;;;;15.68;9.38;;;23.00;99.90;;;;;;4984922;28;20121;-65
2023/07/09 06:40:08;;;;;;;14.27;8.02;;;23.00;99.90;;;;;;4964923;28;20062;-65
2023/07/09 06:42:36;;;;;;;12.30;8.38;;;23.10;99.90;;;;;;4977605;28;20045;-64
2023/07/09 06:45:01;;;;;;;12.27;8.60;;;23.30;99.90;;;;;;4967886;28;20046;-65
2023/07/09 06:47:27;;;;;;;13.82;8.52;;;23.40;99.90;;;;;;4985894;28;20042;-65
2023/07/09 06:49:52;;;;;;;14.52;8.75;;;23.60;99.90;;;;;;4958179;28;20122;-64
2023/07/09 06:52:18;;;;;;;11.65;7.95;;;23.80;99.90;;;;;;4962129;28;20481;-65
2023/07/09 06:54:44;;;;;;;12.40;8.38;;;23.90;99.90;;;;;;4985529;28;20038;-64
2023/07/09 06:57:09;;;;;;;12.13;7.70;;;24.10;99.90;;;;;;4967228;28;20034;-65
2023/07/09 06:59:35;;;;;;;15.50;9.15;;;24.30;99.90;;;;;;4984960;28;20092;-64
2023/07/09 07:02:00;;;;;;;13.50;9.10;;;24.50;99.90;;;;;;4968679;28;20130;-64
2023/07/09 07:04:27;;;;;;;15.77;8.55;;;24.60;99.90;;;;;;4967844;28;20053;-64
2023/07/09 07:06:55;;;;;;;14.95;8.65;;;24.70;99.90;;;;;;4965161;28;20046;-65
2023/07/09 07:09:21;;;;;;;14.93;8.88;;;24.80;99.90;;;;;;4983628;28;20136;-64
2023/07/09 07:11:47;;;;;;;11.77;8.73;;;24.90;99.90;;;;;;4967521;28;20580;-65
2023/07/09 07:14:12;;;;;;;13.23;7.95;;;25.10;99.90;;;;;;4964350;28;20034;-65
2023/07/09 07:16:38;;;;;;;13.35;9.32;;;25.10;99.90;;;;;;4984649;28;20731;-64
2023/07/09 07:19:03;;;;;;;13.43;8.65;;;25.20;99.90;;;;;;4972711;28;20600;-65
2023/07/09 07:21:29;;;;;;;14.82;9.10;;;25.20;99.90;;;;;;4939140;28;20744;-66
2023/07/09 07:23:54;;;;;;;14.93;9.15;;;25.40;99.90;;;;;;4985662;28;20445;-66
2023/07/09 07:26:20;;;;;;;15.13;9.43;;;25.50;99.90;;;;;;4967194;28;20054;-66
2023/07/09 07:28:46;;;;;;;17.50;9.13;;;25.60;99.90;;;;;;4980950;28;20041;-65
2023/07/09 07:31:12;;;;;;;15.05;8.73;;;25.70;99.90;;;;;;4984320;28;20049;-65
2023/07/09 07:33:43;;;;;;;15.50;8.82;;;25.90;99.90;;;;;;4983761;28;20034;-65
2023/07/09 07:36:09;;;;;;;16.52;8.50;;;26.00;99.90;;;;;;4966827;28;20451;-64
2023/07/09 07:38:35;;;;;;;15.55;8.68;;;26.00;99.90;;;;;;4966863;28;20093;-64
2023/07/09 07:41:01;;;;;;;14.52;8.55;;;26.10;99.90;;;;;;4977821;28;20081;-65
2023/07/09 07:43:30;;;;;;;14.63;8.73;;;26.20;99.90;;;;;;4986194;28;20042;-64
2023/07/09 07:45:56;;;;;;;15.43;9.07;;;26.20;99.90;;;;;;4982340;28;20121;-63
2023/07/09 07:48:22;;;;;;;16.55;8.18;;;26.20;99.90;;;;;;4985057;28;20034;-64
2023/07/09 07:50:47;;;;;;;14.05;8.32;;;26.20;99.90;;;;;;4985766;28;20148;-63
2023/07/09 07:53:15;;;;;;;16.88;9.73;;;26.20;99.90;;;;;;5004043;28;20060;-65
2023/07/09 07:55:41;;;;;;;16.25;8.63;;;26.20;99.90;;;;;;4965939;28;20042;-63
2023/07/09 07:58:11;;;;;;;15.48;8.77;;;26.30;99.90;;;;;;4978742;28;20678;-64
2023/07/09 08:00:37;;;;;;;13.68;8.30;;;26.30;99.90;;;;;;4977492;28;20046;-64
2023/07/09 08:03:03;;;;;;;13.68;9.23;;;26.40;99.90;;;;;;4975829;28;20497;-66
2023/07/09 08:05:28;;;;;;;20.25;9.02;;;26.50;99.90;;;;;;4983207;28;20053;-64
2023/07/09 08:07:54;;;;;;;14.10;8.30;;;26.60;99.90;;;;;;4994644;28;20039;-64
2023/07/09 08:10:20;;;;;;;14.35;8.25;;;26.60;99.90;;;;;;4990772;28;20544;-64
2023/07/09 08:12:45;;;;;;;12.43;7.70;;;26.70;99.90;;;;;;4963166;28;20040;-64
2023/07/09 08:15:11;;;;;;;17.92;8.68;;;26.80;99.80;;;;;;4985817;28;20092;-65
2023/07/09 08:17:36;;;;;;;13.65;7.85;;;26.90;99.70;;;;;;4987201;28;20145;-65
2023/07/09 08:20:02;;;;;;;13.88;8.02;;;27.00;99.60;;;;;;4986485;28;20660;-63
2023/07/09 08:22:28;;;;;;;14.48;7.53;;;27.10;99.30;;;;;;4984554;28;20046;-64
2023/07/09 08:24:54;;;;;;;14.70;7.15;;;27.20;99.40;;;;;;4969942;28;20046;-65
2023/07/09 08:27:19;;;;;;;12.52;7.65;;;27.40;98.80;;;;;;4969247;28;20172;-64
2023/07/09 08:29:46;;;;;;;12.35;7.25;;;27.70;98.50;;;;;;4986319;28;20477;-63
2023/07/09 08:32:12;;;;;;;13.55;7.35;;;27.90;98.10;;;;;;4970756;28;20041;-65
2023/07/09 08:34:40;;;;;;;11.35;7.07;;;28.00;97.60;;;;;;4985957;28;20149;-68
2023/07/09 08:37:07;;;;;;;14.43;6.63;;;28.00;97.40;;;;;;4966777;28;20069;-62
2023/07/09 08:39:32;;;;;;;14.90;7.70;;;28.00;97.30;;;;;;4974350;28;20465;-63
2023/07/09 08:42:11;;;;;;;13.32;7.82;;;28.10;97.50;;;;;;4979194;28;20049;-63
2023/07/09 08:44:46;;;;;;;11.82;7.25;;;28.20;97.30;;;;;;4987763;28;20064;-63
2023/07/09 08:47:17;;;;;;;13.02;6.93;;;28.20;97.50;;;;;;4981299;28;20853;-63
2023/07/09 08:49:59;;;;;;;11.82;7.05;;;28.20;97.50;;;;;;4982363;28;20465;-63
2023/07/09 08:52:34;;;;;;;12.73;7.70;;;28.30;97.20;;;;;;4988656;28;20046;-63
2023/07/09 08:55:14;;;;;;;13.00;7.40;;;28.30;97.30;;;;;;4976951;28;20044;-63
2023/07/09 08:57:45;;;;;;;12.75;7.63;;;28.30;97.20;;;;;;4982632;28;20050;-62
2023/07/09 09:00:29;;;;;;;14.13;7.90;;;28.30;97.20;;;;;;5007448;28;20041;-63
2023/07/09 09:02:59;;;;;;;11.05;7.25;;;28.30;97.10;;;;;;4986170;28;20084;-62
2023/07/09 09:05:25;;;;;;;12.25;7.55;;;28.30;96.80;;;;;;4998515;28;20072;-63
2023/07/09 09:08:12;;;;;;;15.68;7.80;;;28.40;96.90;;;;;;5004297;28;20697;-64
2023/07/09 09:10:53;;;;;;;13.52;7.90;;;28.50;96.70;;;;;;4962117;28;20779;-64
2023/07/09 09:13:23;;;;;;;13.85;7.45;;;28.50;96.60;;;;;;4999052;28;20515;-63
2023/07/09 09:15:49;;;;;;;16.20;7.63;;;28.50;96.80;;;;;;4995117;28;20042;-64
2023/07/09 09:18:25;;;;;;;12.30;7.75;;;28.60;96.60;;;;;;4969644;28;20524;-64
2023/07/09 09:21:10;;;;;;;14.27;7.60;;;28.60;96.40;;;;;;4985825;28;20564;-65
2023/07/09 09:23:52;;;;;;;13.18;7.43;;;28.60;96.30;;;;;;4993792;28;20041;-63
2023/07/09 09:26:29;;;;;;;12.27;7.22;;;28.70;96.20;;;;;;4981479;28;20046;-63
2023/07/09 09:28:55;;;;;;;11.75;7.28;;;28.70;96.10;;;;;;4968639;28;20045;-64
2023/07/09 09:31:24;;;;;;;12.80;7.15;;;28.70;96.20;;;;;;4990318;28;20038;-68
2023/07/09 09:33:50;;;;;;;12.63;7.22;;;28.80;96.30;;;;;;4980042;28;20038;-66
2023/07/09 09:36:24;;;;;;;11.27;6.95;;;28.80;96.00;;;;;;4992230;28;20045;-64
2023/07/09 09:38:50;;;;;;;;;;;28.90;96.10;;;;;;4988442;28;20042;-64
2023/07/09 09:41:25;;;;;;;17.27;7.93;;;28.90;95.80;;;;;;4986308;28;19922;-65
2023/07/09 09:43:53;;;;;;;12.85;6.78;;;28.90;95.80;;;;;;4968569;28;20037;-64
2023/07/09 09:46:22;;;;;;;13.30;7.55;;;28.90;95.70;;;;;;4989436;28;20150;-65
2023/07/09 09:48:50;;;;;;;10.02;7.35;;;29.00;95.80;;;;;;4971970;28;20744;-64
2023/07/09 09:51:17;;;;;;;11.57;7.05;;;29.00;95.90;;;;;;5002096;28;20554;-65
2023/07/09 09:53:48;;;;;;;12.55;7.30;;;29.10;95.90;;;;;;4986941;28;20156;-65
2023/07/09 09:56:36;;;;;;;16.83;7.32;;;29.20;95.90;;;;;;4988395;28;20065;-65
2023/07/09 09:59:03;;;;;;;12.68;7.60;;;29.20;95.80;;;;;;5002574;28;20047;-64
2023/07/09 10:01:34;;;;;;;10.48;6.57;;;29.20;95.90;;;;;;4987056;28;20173;-64
2023/07/09 10:04:02;;;;;;;13.23;7.43;;;29.20;95.90;;;;;;4987519;28;20386;-65
2023/07/09 10:06:45;;;;;;;14.05;7.75;;;29.30;95.90;;;;;;4988259;28;20497;-64
2023/07/09 10:09:24;;;;;;;14.30;7.75;;;29.30;95.90;;;;;;5004570;28;20252;-64
2023/07/09 10:12:02;;;;;;;12.98;6.93;;;29.40;95.80;;;;;;5004604;28;20038;-65
2023/07/09 10:14:33;;;;;;;14.05;7.68;;;29.40;95.80;;;;;;4987634;28;20412;-64
2023/07/09 10:17:10;;;;;;;14.30;6.70;;;29.40;95.70;;;;;;4988666;28;20556;-65
2023/07/09 10:19:59;;;;;;;14.05;7.85;;;29.40;95.90;;;;;;5005962;28;20038;-64
2023/07/09 10:22:25;;;;;;;11.65;7.18;;;29.50;95.60;;;;;;4968367;28;20046;-64
2023/07/09 10:25:02;;;;;;;12.90;7.85;;;29.50;95.80;;;;;;4968918;28;20085;-63
2023/07/09 10:27:35;;;;;;;14.20;7.70;;;29.60;95.70;;;;;;4987475;28;20046;-63
2023/07/09 10:30:35;;;;;;;18.53;8.03;;;29.60;95.40;;;;;;4987642;28;20047;-64
2023/07/09 10:33:03;;;;;;;14.25;7.90;;;29.60;95.50;;;;;;4988435;28;20091;-65
2023/07/09 10:35:41;;;;;;;12.68;7.07;;;29.60;95.50;;;;;;4988274;28;20044;-64
2023/07/09 10:38:25;;;;;;;12.88;7.40;;;29.70;95.60;;;;;;4968839;28;20161;-65
2023/07/09 10:40:58;;;;;;;14.02;7.90;;;29.80;95.80;;;;;;4980350;28;20056;-65
2023/07/09 10:43:41;;;;;;;12.50;7.28;;;29.80;95.40;;;;;;4987455;28;20084;-66
2023/07/09 10:46:26;;;;;;;14.23;8.57;;;29.90;95.30;;;;;;4985659;28;20073;-65
2023/07/09 10:48:54;;;;;;;17.60;7.43;;;29.90;95.10;;;;;;4979098;28;20069;-65
2023/07/09 10:51:44;;;;;;;13.38;8.30;;;29.90;95.00;;;;;;5005222;28;20054;-65
2023/07/09 10:54:33;;;;;;;17.05;7.80;;;29.90;95.20;;;;;;5005001;28;20052;-65
2023/07/09 10:57:12;;;;;;;14.00;7.78;;;30.00;95.20;;;;;;5004720;28;20045;-65
2023/07/09 10:59:40;;;;;;;14.80;7.28;;;29.90;94.80;;;;;;4987581;28;20048;-64
2023/07/09 11:02:24;;;;;;;15.20;8.50;;;30.00;95.10;;;;;;4971322;28;20084;-64
2023/07/09 11:05:02;;;;;;;18.10;7.68;;;30.00;95.10;;;;;;5003790;28;20436;-62
2023/07/09 11:07:33;;;;;;;12.57;7.63;;;30.00;95.10;;;;;;5005089;28;20042;-65
2023/07/09 11:10:01;;;;;;;11.73;7.43;;;30.10;95.20;;;;;;4987004;28;20081;-63
2023/07/09 11:12:52;;;;;;;13.75;7.65;;;30.10;94.90;;;;;;4986009;28;20564;-64
2023/07/09 11:15:25;;;;;;;11.00;6.75;;;30.10;94.80;;;;;;5004951;28;20042;-64
2023/07/09 11:17:51;;;;;;;10.70;7.43;;;30.20;94.60;;;;;;5004698;28;20583;-64
2023/07/09 11:20:34;;;;;;;12.40;7.20;;;30.20;95.00;;;;;;4986975;28;20054;-64
2023/07/09 11:23:26;;;;;;;13.07;8.20;;;30.30;94.90;;;;;;4986086;28;20588;-64
2023/07/09 11:26:13;;;;;;;15.43;7.80;;;30.30;94.90;;;;;;5000985;28;20238;-64
2023/07/09 11:28:47;;;;;;;12.80;6.82;;;30.30;94.30;;;;;;4970838;28;20125;-64
2023/07/09 11:31:34;;;;;;;12.77;7.50;;;30.30;94.60;;;;;;4984046;28;20481;-66
2023/07/09 11:34:07;;;;;;;14.88;7.35;;;30.40;94.30;;;;;;4974461;28;20045;-64
2023/07/09 11:36:34;;;;;;;12.27;7.50;;;30.40;94.00;;;;;;4986921;28;20042;-65
2023/07/09 11:39:01;;;;;;;12.77;7.10;;;30.30;94.20;;;;;;4986616;28;20063;-63
2023/07/09 11:41:28;;;;;;;12.00;7.03;;;30.40;94.40;;;;;;5003818;28;20049;-66
2023/07/09 11:44:10;;;;;;;11.68;6.88;;;30.50;94.00;;;;;;5002424;28;20100;-65
2023/07/09 11:46:48;;;;;;;10.32;6.60;;;30.50;93.80;;;;;;4971090;28;20042;-67
2023/07/09 11:49:13;;;;;;;12.77;6.80;;;30.70;93.80;;;;;;4986394;28;20163;-67
2023/07/09 11:51:46;;;;;;;12.90;6.80;;;30.70;93.70;;;;;;5004238;28;20038;-63
2023/07/09 11:54:15;;;;;;;11.35;6.90;;;30.80;93.80;;;;;;5004237;28;20041;-66
2023/07/09 11:56:41;;;;;;;10.98;6.95;;;30.90;93.40;;;;;;5003529;28;20104;-66
2023/07/09 11:59:11;;;;;;;12.13;6.72;;;31.00;93.20;;;;;;4983193;28;20401;-65
2023/07/09 12:01:48;;;;;;;11.52;7.18;;;31.10;93.00;;;;;;4967798;28;20046;-68
2023/07/09 12:04:20;;;;;;;13.13;6.47;;;31.20;93.10;;;;;;4967011;28;20053;-64
2023/07/09 12:06:47;;;;;;;11.27;6.93;;;31.10;92.20;;;;;;4997720;28;20157;-66
2023/07/09 12:09:18;;;;;;;11.00;6.78;;;31.20;92.60;;;;;;4986791;28;20046;-66
2023/07/09 12:11:49;;;;;;;14.88;6.72;;;31.30;92.60;;;;;;4982300;28;20045;-66
2023/07/09 12:14:17;;;;;;;11.02;6.57;;;31.40;92.70;;;;;;4969215;28;20606;-66
2023/07/09 12:16:51;;;;;;;11.27;7.15;;;31.50;92.80;;;;;;4968711;28;20057;-65
2023/07/09 12:19:20;;;;;;;10.75;7.05;;;31.60;92.20;;;;;;4988855;28;20077;-67
2023/07/09 12:21:49;;;;;;;11.30;6.60;;;31.70;92.60;;;;;;4979141;28;20104;-67
2023/07/09 12:24:24;;;;;;;11.65;6.47;;;31.70;92.90;;;;;;5007947;28;20050;-69
2023/07/09 12:26:58;;;;;;;11.05;6.50;;;31.80;92.60;;;;;;4989834;28;20037;-67
2023/07/09 12:29:24;;;;;;;;;;;31.70;91.80;;;;;;4989953;28;20034;-65
2023/07/09 12:31:50;;;;;;;12.15;7.40;;;31.60;91.50;;;;;;4990801;28;20288;-65
2023/07/09 12:34:16;;;;;;;11.73;7.47;;;31.50;92.60;;;;;;4989557;28;20042;-65
2023/07/09 12:36:53;;;;;;;13.07;7.38;;;31.40;92.90;;;;;;5001468;28;20278;-65
2023/07/09 12:39:28;;;;;;;14.27;7.00;;;31.50;92.80;;;;;;4970782;28;20056;-66
2023/07/09 12:41:56;;;;;;;12.10;6.72;;;31.60;92.90;;;;;;4970555;28;20532;-65
2023/07/09 12:44:23;;;;;;;9.48;6.43;;;31.70;93.00;;;;;;4976043;28;20041;-64